Lake Camelot, Illinois
Current Conditions -  °F | °C
As of 1:54 AM on Thursday 23 Oct 2014 (Local Time) from KPIA Reporting Station
Clear Clear  
Wind Chill: 42°   Ceiling: Unl
Heat Index: 42°   Visibility: 10mi
Dew Point: 35°   Wind: 0mph
Humidity: 76%   Direction: NA
Pressure: 30.22"   Gusts: NA
Location:  40.5976°N, 89.727°W
Report Text: KPIA 230654Z 00000KT 10SM CLR 06/02 A3022 RMK AO2 SLP235 T00560017 $
Loading
Personal Weather Stations






























Interactive Weather Map
Tropical Storm Tracking
New forecast layout! Learn more

10-Day Weather Forecast

Advertisements
Track Severe Weather on mobile